Time;durP1;ratioP1;P1;durP2;ratioP2;P2;SDS_P1;SDS_P2;PMS_P1;PMS_P2;Temp;Humidity;BMP_temperature;BMP_pressure;BME280_temperature;BME280_humidity;BME280_pressure;Samples;Min_cycle;Max_cycle;Signal;HPM_P1;HPM_P2
2022/01/19 00:01:02;;;;;;;320.33;43.42;;;;;;;;;;4994208;28;20028;-69
2022/01/19 00:03:27;;;;;;;362.42;57.38;;;;;;;;;;4988767;28;20343;-69
2022/01/19 00:05:52;;;;;;;296.92;47.72;;;;;;;;;;4988841;28;20049;-70
2022/01/19 00:08:21;;;;;;;268.17;40.22;;;;;;;;;;4989481;28;20030;-70
2022/01/19 00:10:47;;;;;;;387.38;46.80;;;;;;;;;;4989156;28;20478;-70
2022/01/19 00:13:12;;;;;;;391.02;52.97;;;;;;;;;;4989807;28;20029;-69
2022/01/19 00:15:38;;;;;;;259.65;48.83;;;;;;;;;;4993612;28;21878;-69
2022/01/19 00:18:06;;;;;;;350.88;45.47;;;;;;;;;;4990654;28;20104;-69
2022/01/19 00:20:34;;;;;;;330.67;41.67;;;;;;;;;;4990491;28;20032;-70
2022/01/19 00:23:03;;;;;;;244.18;41.58;;;;;;;;;;4989207;28;20097;-70
2022/01/19 00:25:29;;;;;;;310.42;43.25;;;;;;;;;;4989677;28;20037;-70
2022/01/19 00:27:55;;;;;;;268.42;40.30;;;;;;;;;;4993967;28;20029;-70
2022/01/19 00:30:20;;;;;;;257.30;46.55;;;;;;;;;;4989097;28;20446;-69
2022/01/19 00:32:46;;;;;;;450.02;65.25;;;;;;;;;;4992248;28;20025;-70
2022/01/19 00:35:14;;;;;;;278.23;60.72;;;;;;;;;;4987841;28;20058;-70
2022/01/19 00:37:41;;;;;;;370.67;67.68;;;;;;;;;;4992849;28;20050;-72
2022/01/19 00:40:07;;;;;;;395.02;68.55;;;;;;;;;;4992938;28;20477;-69
2022/01/19 00:42:33;;;;;;;301.25;57.05;;;;;;;;;;4993731;28;20397;-70
2022/01/19 00:44:58;;;;;;;244.45;53.88;;;;;;;;;;4989371;28;20022;-70
2022/01/19 00:47:26;;;;;;;250.80;46.42;;;;;;;;;;4987829;28;20126;-70
2022/01/19 00:49:54;;;;;;;274.60;47.33;;;;;;;;;;4988732;28;20026;-70
2022/01/19 00:52:19;;;;;;;227.20;46.17;;;;;;;;;;4988481;28;20033;-71
2022/01/19 00:54:45;;;;;;;251.07;54.65;;;;;;;;;;4987959;28;20038;-69
2022/01/19 00:57:12;;;;;;;342.08;53.35;;;;;;;;;;4984522;28;20085;-69
2022/01/19 00:59:38;;;;;;;292.90;46.92;;;;;;;;;;4988752;28;20113;-70
2022/01/19 01:02:04;;;;;;;280.42;51.05;;;;;;;;;;4987752;28;20088;-70
2022/01/19 01:04:32;;;;;;;291.02;56.03;;;;;;;;;;4987666;28;20049;-70
2022/01/19 01:07:00;;;;;;;256.27;43.40;;;;;;;;;;4981814;28;20084;-70
2022/01/19 01:09:25;;;;;;;231.15;48.08;;;;;;;;;;4988627;28;20116;-69
2022/01/19 01:12:09;;;;;;;333.77;53.28;;;;;;;;;;4989062;28;20471;-70
2022/01/19 01:20:04;;;;;;;270.02;46.60;;;;;;;;;;4988603;28;20092;-69
2022/01/19 01:22:32;;;;;;;270.67;47.35;;;;;;;;;;4987529;28;20057;-70
2022/01/19 01:24:57;;;;;;;274.77;48.70;;;;;;;;;;4993113;28;20030;-69
2022/01/19 01:27:22;;;;;;;226.52;49.83;;;;;;;;;;4988596;28;20040;-70
2022/01/19 01:29:47;;;;;;;236.00;46.42;;;;;;;;;;4992287;28;20137;-70
2022/01/19 01:32:13;;;;;;;185.70;45.58;;;;;;;;;;4987044;28;20026;-70
2022/01/19 01:34:41;;;;;;;282.77;48.47;;;;;;;;;;4987802;28;20040;-69
2022/01/19 01:37:06;;;;;;;232.93;58.90;;;;;;;;;;4987916;28;20030;-70
2022/01/19 01:39:31;;;;;;;275.92;70.25;;;;;;;;;;4986485;28;20026;-70
2022/01/19 01:41:59;;;;;;;331.35;81.53;;;;;;;;;;4988047;28;20040;-70
2022/01/19 01:44:24;;;;;;;385.27;98.18;;;;;;;;;;4987771;28;21814;-71
2022/01/19 01:46:55;;;;;;;453.88;118.80;;;;;;;;;;4975749;28;20022;-70
2022/01/19 01:49:44;;;;;;;417.35;121.38;;;;;;;;;;4987189;28;20022;-70
2022/01/19 01:54:49;;;;;;;405.83;116.28;;;;;;;;;;5002829;28;20253;-70
2022/01/19 01:57:15;;;;;;;400.52;121.35;;;;;;;;;;4988599;28;20064;-70
2022/01/19 01:59:40;;;;;;;414.00;115.97;;;;;;;;;;4988010;28;20251;-70
2022/01/19 02:02:06;;;;;;;401.67;115.95;;;;;;;;;;4987416;28;20117;-70
2022/01/19 02:04:40;;;;;;;404.63;118.10;;;;;;;;;;4960141;28;20041;-69
2022/01/19 02:08:03;;;;;;;316.65;97.03;;;;;;;;;;4988354;28;20116;-70
2022/01/19 02:09:58;;;;;;;239.25;73.05;;;;;;;;;;4980171;28;20049;-68
2022/01/19 02:25:49;;;;;;;413.60;130.55;;;;;;;;;;4987674;28;20050;-70
2022/01/19 02:41:43;;;;;;;241.48;73.32;;;;;;;;;;4988066;28;21076;-70
2022/01/19 02:44:13;;;;;;;248.00;72.32;;;;;;;;;;4986599;28;20044;-70
2022/01/19 02:49:16;;;;;;;186.38;59.90;;;;;;;;;;4986247;28;20042;-70
2022/01/19 02:51:47;;;;;;;184.35;59.22;;;;;;;;;;4987636;28;20033;-69
2022/01/19 02:54:16;;;;;;;178.25;59.75;;;;;;;;;;4991482;28;20047;-69
2022/01/19 02:56:49;;;;;;;156.60;55.88;;;;;;;;;;4987976;28;20030;-71
2022/01/19 03:10:06;;;;;;;136.02;47.70;;;;;;;;;;4986627;28;20228;-70
2022/01/19 03:12:33;;;;;;;122.25;40.10;;;;;;;;;;4987565;28;20789;-70
2022/01/19 03:14:59;;;;;;;116.20;37.20;;;;;;;;;;4986576;28;20041;-70
2022/01/19 03:17:24;;;;;;;138.02;37.10;;;;;;;;;;4974876;28;20034;-70
2022/01/19 03:19:50;;;;;;;112.28;34.80;;;;;;;;;;4985626;28;20042;-70
2022/01/19 03:22:20;;;;;;;133.63;38.00;;;;;;;;;;4974535;28;20089;-70
2022/01/19 03:24:50;;;;;;;128.77;38.65;;;;;;;;;;4991438;28;20072;-70
2022/01/19 03:27:16;;;;;;;142.23;38.63;;;;;;;;;;4995338;28;20061;-70
2022/01/19 03:29:44;;;;;;;123.45;36.90;;;;;;;;;;4995695;28;20029;-70
2022/01/19 03:32:10;;;;;;;125.93;37.22;;;;;;;;;;4989149;28;20041;-71
2022/01/19 03:34:36;;;;;;;118.78;38.25;;;;;;;;;;4989993;28;20037;-70
2022/01/19 03:37:03;;;;;;;133.30;38.47;;;;;;;;;;4990112;28;20521;-70
2022/01/19 03:39:28;;;;;;;109.15;37.15;;;;;;;;;;4994332;28;20501;-70
2022/01/19 03:41:54;;;;;;;123.32;39.30;;;;;;;;;;4991086;28;20041;-70
2022/01/19 03:44:20;;;;;;;114.32;37.17;;;;;;;;;;4978598;28;20033;-72
2022/01/19 03:47:00;;;;;;;109.82;37.22;;;;;;;;;;4989097;28;20040;-71
2022/01/19 03:49:27;;;;;;;118.75;39.45;;;;;;;;;;4990675;28;20044;-70
2022/01/19 03:51:58;;;;;;;115.47;37.97;;;;;;;;;;4991101;28;20228;-70
2022/01/19 03:54:23;;;;;;;119.85;38.38;;;;;;;;;;4990072;28;20124;-70
2022/01/19 03:56:48;;;;;;;108.43;38.88;;;;;;;;;;4994331;28;20030;-70
2022/01/19 03:59:16;;;;;;;115.40;38.78;;;;;;;;;;4988655;28;20034;-70
2022/01/19 04:01:42;;;;;;;109.53;36.75;;;;;;;;;;4993987;28;20033;-71
2022/01/19 04:07:00;;;;;;;113.05;37.47;;;;;;;;;;4989175;28;20037;-70
2022/01/19 04:09:28;;;;;;;117.93;37.67;;;;;;;;;;4993614;28;20088;-70
2022/01/19 04:11:56;;;;;;;106.65;38.67;;;;;;;;;;4989879;28;20442;-69
2022/01/19 04:14:22;;;;;;;103.88;36.97;;;;;;;;;;4989503;28;20041;-70
2022/01/19 04:16:47;;;;;;;101.57;37.25;;;;;;;;;;4990160;28;20057;-70
2022/01/19 04:19:23;;;;;;;102.80;36.33;;;;;;;;;;4989513;28;20204;-69
2022/01/19 04:21:52;;;;;;;101.18;37.50;;;;;;;;;;4993890;28;20104;-69
2022/01/19 04:24:18;;;;;;;106.38;37.85;;;;;;;;;;4987389;28;20485;-70
2022/01/19 04:26:45;;;;;;;103.70;37.83;;;;;;;;;;4993126;28;20033;-69
2022/01/19 04:29:10;;;;;;;107.25;38.20;;;;;;;;;;4989237;28;20029;-70
2022/01/19 04:31:38;;;;;;;100.55;36.50;;;;;;;;;;4989013;28;20466;-70
2022/01/19 04:34:05;;;;;;;109.78;37.17;;;;;;;;;;4988707;28;20034;-70
2022/01/19 04:44:42;;;;;;;99.18;35.88;;;;;;;;;;5003836;28;20060;-70
2022/01/19 04:47:45;;;;;;;89.57;35.70;;;;;;;;;;4988907;28;20034;-70
2022/01/19 05:06:40;;;;;;;87.50;30.63;;;;;;;;;;4975473;28;20108;-69
2022/01/19 05:14:34;;;;;;;83.07;31.20;;;;;;;;;;4987951;28;20030;-69
2022/01/19 05:16:59;;;;;;;81.40;30.88;;;;;;;;;;4987978;28;20037;-69
2022/01/19 05:19:28;;;;;;;77.30;29.58;;;;;;;;;;4987690;28;20125;-69
2022/01/19 05:21:56;;;;;;;74.53;30.20;;;;;;;;;;4988234;28;20143;-69
2022/01/19 05:24:21;;;;;;;66.30;29.35;;;;;;;;;;4976136;28;20061;-70
2022/01/19 05:26:54;;;;;;;65.50;28.33;;;;;;;;;;4987815;28;20354;-70
2022/01/19 05:29:19;;;;;;;69.90;28.73;;;;;;;;;;4988102;28;20052;-69
2022/01/19 05:31:45;;;;;;;69.38;29.17;;;;;;;;;;4992185;28;20473;-70
2022/01/19 05:34:13;;;;;;;71.55;28.80;;;;;;;;;;4988437;28;20052;-70
2022/01/19 05:36:38;;;;;;;63.08;27.67;;;;;;;;;;4987057;28;20104;-71
2022/01/19 05:39:05;;;;;;;68.15;28.17;;;;;;;;;;4988119;28;20124;-70
2022/01/19 05:41:31;;;;;;;66.53;28.45;;;;;;;;;;4988322;28;20034;-68
2022/01/19 05:43:56;;;;;;;61.47;27.75;;;;;;;;;;4987836;28;20029;-71
2022/01/19 05:46:22;;;;;;;72.82;28.02;;;;;;;;;;4987030;28;20061;-69
2022/01/19 05:48:47;;;;;;;61.60;28.30;;;;;;;;;;4987126;28;20060;-69
2022/01/19 05:51:13;;;;;;;67.30;29.38;;;;;;;;;;4988127;28;20327;-70
2022/01/19 05:53:39;;;;;;;71.45;29.20;;;;;;;;;;4988023;28;20037;-69
2022/01/19 05:56:04;;;;;;;66.45;28.83;;;;;;;;;;4988595;28;20113;-70
2022/01/19 05:58:32;;;;;;;65.68;28.65;;;;;;;;;;4987100;28;20054;-69
2022/01/19 06:00:58;;;;;;;74.80;30.48;;;;;;;;;;4986227;28;20076;-69
2022/01/19 06:03:23;;;;;;;66.22;29.27;;;;;;;;;;4975046;28;20574;-69
2022/01/19 06:05:48;;;;;;;70.22;29.85;;;;;;;;;;4986366;28;20032;-69
2022/01/19 06:10:48;;;;;;;68.23;29.40;;;;;;;;;;5002260;28;20117;-69
2022/01/19 06:13:17;;;;;;;66.18;29.42;;;;;;;;;;5001642;28;20280;-69
2022/01/19 06:15:43;;;;;;;79.40;30.45;;;;;;;;;;4987705;28;20442;-69
2022/01/19 06:18:11;;;;;;;68.00;29.77;;;;;;;;;;4986238;28;20057;-69
2022/01/19 06:20:38;;;;;;;68.43;29.13;;;;;;;;;;4987611;28;20065;-69
2022/01/19 06:23:03;;;;;;;78.07;30.88;;;;;;;;;;4986783;28;20042;-69
2022/01/19 06:25:28;;;;;;;65.07;29.15;;;;;;;;;;4987367;28;20048;-69
2022/01/19 06:27:54;;;;;;;68.93;30.83;;;;;;;;;;4986886;28;20036;-69
2022/01/19 06:30:22;;;;;;;76.20;30.00;;;;;;;;;;4987257;28;20080;-70
2022/01/19 06:32:50;;;;;;;66.28;29.55;;;;;;;;;;4991707;28;20160;-70
2022/01/19 06:35:15;;;;;;;74.20;29.95;;;;;;;;;;4991338;28;20552;-69
2022/01/19 06:37:43;;;;;;;63.17;28.83;;;;;;;;;;4992063;28;20139;-70
2022/01/19 06:40:12;;;;;;;64.93;30.77;;;;;;;;;;4986676;28;20041;-69
2022/01/19 06:42:41;;;;;;;66.63;29.70;;;;;;;;;;4975765;28;20030;-69
2022/01/19 06:45:07;;;;;;;67.93;31.13;;;;;;;;;;4987091;28;20030;-70
2022/01/19 06:47:36;;;;;;;73.53;31.63;;;;;;;;;;4982518;28;20105;-71
2022/01/19 06:50:05;;;;;;;65.10;29.73;;;;;;;;;;4987876;28;20111;-70
2022/01/19 06:52:33;;;;;;;65.30;30.85;;;;;;;;;;4987024;28;21959;-70
2022/01/19 06:54:59;;;;;;;57.03;28.98;;;;;;;;;;4987123;28;20397;-70
2022/01/19 06:57:24;;;;;;;64.38;30.80;;;;;;;;;;4974536;28;20030;-70
2022/01/19 06:59:51;;;;;;;69.50;31.50;;;;;;;;;;4989150;28;20107;-70
2022/01/19 07:02:17;;;;;;;62.75;30.35;;;;;;;;;;4990987;28;20026;-69
2022/01/19 07:04:48;;;;;;;53.60;25.02;;;;;;;;;;4990809;28;20029;-69
2022/01/19 07:07:16;;;;;;;43.47;23.13;;;;;;;;;;4990285;28;20137;-69
2022/01/19 07:09:41;;;;;;;52.28;24.00;;;;;;;;;;4978990;28;20283;-69
2022/01/19 07:12:07;;;;;;;37.03;18.75;;;;;;;;;;4989986;28;20026;-69
2022/01/19 07:14:34;;;;;;;33.15;17.88;;;;;;;;;;4990139;28;20010;-70
2022/01/19 07:17:00;;;;;;;38.38;17.20;;;;;;;;;;4995589;28;20025;-69
2022/01/19 07:19:26;;;;;;;41.78;19.90;;;;;;;;;;4990006;28;20209;-69
2022/01/19 07:21:51;;;;;;;39.17;18.52;;;;;;;;;;4990552;28;20076;-70
2022/01/19 07:24:17;;;;;;;39.95;16.83;;;;;;;;;;4989331;28;20057;-69
2022/01/19 07:26:43;;;;;;;39.80;18.40;;;;;;;;;;4973198;28;20040;-69
2022/01/19 07:29:08;;;;;;;37.13;18.00;;;;;;;;;;4989523;28;20490;-69
2022/01/19 07:31:33;;;;;;;36.47;16.90;;;;;;;;;;4990953;28;20792;-70
2022/01/19 07:34:01;;;;;;;30.90;16.92;;;;;;;;;;4989035;28;20038;-69
2022/01/19 07:36:26;;;;;;;32.45;16.40;;;;;;;;;;4989035;28;20498;-69
2022/01/19 07:38:52;;;;;;;33.70;16.05;;;;;;;;;;4990113;28;20029;-68
2022/01/19 07:41:17;;;;;;;32.95;13.65;;;;;;;;;;4978085;28;20176;-68
2022/01/19 07:43:43;;;;;;;26.42;12.00;;;;;;;;;;4989269;28;20098;-69
2022/01/19 07:46:08;;;;;;;27.60;11.65;;;;;;;;;;4994960;28;20030;-69
2022/01/19 07:48:34;;;;;;;29.63;11.52;;;;;;;;;;4990301;28;20703;-69
2022/01/19 07:50:59;;;;;;;28.98;11.27;;;;;;;;;;4977557;28;20548;-69
2022/01/19 07:53:24;;;;;;;32.10;12.70;;;;;;;;;;4977821;28;20367;-69
2022/01/19 07:55:53;;;;;;;31.98;13.75;;;;;;;;;;4989902;28;20576;-69
2022/01/19 07:58:21;;;;;;;33.47;14.05;;;;;;;;;;4988395;28;20047;-69
2022/01/19 08:00:46;;;;;;;36.85;14.82;;;;;;;;;;4989098;28;20486;-68
2022/01/19 08:03:14;;;;;;;29.60;14.77;;;;;;;;;;4989577;28;20140;-69
2022/01/19 08:05:44;;;;;;;26.25;13.10;;;;;;;;;;4977142;28;20033;-69
2022/01/19 08:08:10;;;;;;;36.50;14.05;;;;;;;;;;4987949;28;20054;-70
2022/01/19 08:10:35;;;;;;;35.65;12.40;;;;;;;;;;4976787;28;20125;-69
2022/01/19 08:13:05;;;;;;;27.38;11.60;;;;;;;;;;4988743;28;20038;-70
2022/01/19 08:15:34;;;;;;;37.75;12.25;;;;;;;;;;4993829;28;20044;-70
2022/01/19 08:17:59;;;;;;;34.25;11.63;;;;;;;;;;4993299;28;20038;-69
2022/01/19 08:20:25;;;;;;;33.55;11.73;;;;;;;;;;4989151;28;20038;-70
2022/01/19 08:22:52;;;;;;;27.50;11.00;;;;;;;;;;4976998;28;20482;-70
2022/01/19 08:25:19;;;;;;;32.63;11.63;;;;;;;;;;4977486;28;20065;-69
2022/01/19 08:27:45;;;;;;;35.85;11.30;;;;;;;;;;4988484;28;20472;-70
2022/01/19 08:30:11;;;;;;;28.52;11.65;;;;;;;;;;4989904;28;20033;-69
2022/01/19 08:32:37;;;;;;;32.70;11.48;;;;;;;;;;4994009;28;20049;-69
2022/01/19 08:35:06;;;;;;;28.30;11.07;;;;;;;;;;4988520;28;20517;-69
2022/01/19 08:37:36;;;;;;;31.05;12.15;;;;;;;;;;4988958;28;20107;-69
2022/01/19 08:40:03;;;;;;;30.92;12.02;;;;;;;;;;4989204;28;20033;-69
2022/01/19 08:42:29;;;;;;;30.42;13.23;;;;;;;;;;4993643;28;20048;-68
2022/01/19 08:44:54;;;;;;;27.60;11.90;;;;;;;;;;4993133;28;20061;-69
2022/01/19 08:47:20;;;;;;;31.90;11.63;;;;;;;;;;4988993;28;20048;-71
2022/01/19 08:49:45;;;;;;;30.45;12.25;;;;;;;;;;4989110;28;20263;-69
2022/01/19 08:52:11;;;;;;;37.33;14.38;;;;;;;;;;4989228;28;20034;-68
2022/01/19 08:54:38;;;;;;;31.48;12.90;;;;;;;;;;4987888;28;20037;-69
2022/01/19 08:57:04;;;;;;;35.22;12.70;;;;;;;;;;4989197;28;20109;-69
2022/01/19 08:59:30;;;;;;;43.17;16.83;;;;;;;;;;4976885;28;20713;-69
2022/01/19 09:01:56;;;;;;;44.03;19.08;;;;;;;;;;4988024;28;20034;-69
2022/01/19 09:04:24;;;;;;;48.17;18.38;;;;;;;;;;4976845;28;20481;-69
2022/01/19 09:06:50;;;;;;;40.00;16.85;;;;;;;;;;4988233;28;20022;-69
2022/01/19 09:09:15;;;;;;;39.63;17.52;;;;;;;;;;4988986;28;20056;-69
2022/01/19 09:11:43;;;;;;;38.35;17.45;;;;;;;;;;4988407;28;20197;-68
2022/01/19 09:14:11;;;;;;;43.92;17.00;;;;;;;;;;4988780;28;20044;-69
2022/01/19 09:16:41;;;;;;;31.48;15.90;;;;;;;;;;4988223;28;20285;-69
2022/01/19 09:19:12;;;;;;;43.20;17.13;;;;;;;;;;4988432;28;20467;-69
2022/01/19 09:21:40;;;;;;;41.67;18.42;;;;;;;;;;4988145;28;20044;-69
2022/01/19 09:24:06;;;;;;;38.38;16.10;;;;;;;;;;4986393;28;20062;-69
2022/01/19 09:26:31;;;;;;;35.53;14.40;;;;;;;;;;4986922;28;20166;-69
2022/01/19 09:28:57;;;;;;;27.80;12.65;;;;;;;;;;4986987;28;20497;-70
2022/01/19 09:31:23;;;;;;;23.27;9.98;;;;;;;;;;4988195;28;20036;-70
2022/01/19 09:33:55;;;;;;;25.45;8.73;;;;;;;;;;4991407;28;20052;-69
2022/01/19 09:36:32;;;;;;;;;;;;;;;;;;5004171;28;20057;-70
2022/01/19 09:38:58;;;;;;;31.38;11.02;;;;;;;;;;4987651;28;20025;-69
2022/01/19 09:41:23;;;;;;;32.30;11.82;;;;;;;;;;4988613;28;20454;-69
2022/01/19 09:43:51;;;;;;;27.52;11.65;;;;;;;;;;4991290;28;20573;-69
2022/01/19 09:46:17;;;;;;;27.83;11.38;;;;;;;;;;4987985;28;20153;-69
2022/01/19 09:48:43;;;;;;;29.70;9.00;;;;;;;;;;4987354;28;20139;-69
2022/01/19 09:51:12;;;;;;;22.05;7.05;;;;;;;;;;4992223;28;20262;-70
2022/01/19 09:53:37;;;;;;;24.98;6.68;;;;;;;;;;4987489;28;20465;-68
2022/01/19 09:56:08;;;;;;;22.50;6.18;;;;;;;;;;4987746;28;20105;-69
2022/01/19 09:58:33;;;;;;;15.15;4.45;;;;;;;;;;4987927;28;20036;-70
2022/01/19 10:01:01;;;;;;;19.02;4.90;;;;;;;;;;4975979;28;20034;-69
2022/01/19 10:03:28;;;;;;;19.73;4.88;;;;;;;;;;4986399;28;20494;-70
2022/01/19 10:05:55;;;;;;;18.05;4.60;;;;;;;;;;4988007;28;20513;-70
2022/01/19 10:08:27;;;;;;;22.63;4.50;;;;;;;;;;4986692;28;20894;-69
2022/01/19 10:11:14;;;;;;;15.63;4.28;;;;;;;;;;4987328;28;20277;-69
2022/01/19 10:19:23;;;;;;;21.13;4.72;;;;;;;;;;4987359;28;20021;-69
2022/01/19 10:22:08;;;;;;;19.30;5.30;;;;;;;;;;4986749;28;20501;-70
2022/01/19 10:24:38;;;;;;;18.70;4.88;;;;;;;;;;4987457;28;20092;-69
2022/01/19 10:27:24;;;;;;;15.82;4.55;;;;;;;;;;5002148;28;20034;-70
2022/01/19 10:29:54;;;;;;;23.73;4.78;;;;;;;;;;4982455;28;20486;-70
2022/01/19 10:32:22;;;;;;;20.13;4.38;;;;;;;;;;4986177;28;20033;-69
2022/01/19 10:34:47;;;;;;;21.63;4.57;;;;;;;;;;5001308;28;20121;-70
2022/01/19 10:37:13;;;;;;;20.42;4.38;;;;;;;;;;4985199;28;22477;-70
2022/01/19 10:39:43;;;;;;;22.55;4.75;;;;;;;;;;4987083;28;20120;-69
2022/01/19 10:42:10;;;;;;;19.75;4.00;;;;;;;;;;4965038;28;20030;-69
2022/01/19 10:44:36;;;;;;;17.40;3.67;;;;;;;;;;4986898;28;20080;-70
2022/01/19 10:47:01;;;;;;;25.70;4.10;;;;;;;;;;4987469;28;20060;-70
2022/01/19 10:49:27;;;;;;;26.48;5.00;;;;;;;;;;4985636;28;20042;-69
2022/01/19 10:51:58;;;;;;;23.15;4.85;;;;;;;;;;4986519;28;20046;-71
2022/01/19 10:54:27;;;;;;;22.27;4.80;;;;;;;;;;4986326;28;20248;-70
2022/01/19 10:56:57;;;;;;;27.40;5.75;;;;;;;;;;4991540;28;20121;-69
2022/01/19 10:59:30;;;;;;;23.90;5.13;;;;;;;;;;4986552;28;20026;-70
2022/01/19 11:01:59;;;;;;;18.80;4.20;;;;;;;;;;4986889;28;20041;-70
2022/01/19 11:04:28;;;;;;;23.20;5.30;;;;;;;;;;4986751;28;20036;-70
2022/01/19 11:07:11;;;;;;;20.10;4.00;;;;;;;;;;4986628;28;20798;-70
2022/01/19 11:09:45;;;;;;;20.33;4.47;;;;;;;;;;4986500;28;20370;-70
2022/01/19 11:12:14;;;;;;;35.15;5.63;;;;;;;;;;4986822;28;22122;-70
2022/01/19 11:14:40;;;;;;;22.05;4.72;;;;;;;;;;4974870;28;20026;-69
2022/01/19 11:17:06;;;;;;;23.52;4.72;;;;;;;;;;4986709;28;20078;-70
2022/01/19 11:19:35;;;;;;;21.55;4.07;;;;;;;;;;4986392;28;20826;-69
2022/01/19 11:22:20;;;;;;;22.88;4.88;;;;;;;;;;4986588;28;20030;-69
2022/01/19 11:24:55;;;;;;;24.33;4.80;;;;;;;;;;4985059;28;20099;-71
2022/01/19 11:27:21;;;;;;;26.52;5.75;;;;;;;;;;4986382;28;20037;-70
2022/01/19 11:30:07;;;;;;;23.95;4.40;;;;;;;;;;4986751;28;20081;-70
2022/01/19 11:32:33;;;;;;;28.45;4.43;;;;;;;;;;4986825;28;20030;-69
2022/01/19 11:34:59;;;;;;;23.08;4.50;;;;;;;;;;4986988;28;20049;-70
2022/01/19 11:37:43;;;;;;;24.17;4.28;;;;;;;;;;4986714;28;20042;-70
2022/01/19 11:40:11;;;;;;;20.60;4.20;;;;;;;;;;4990078;28;20133;-70
2022/01/19 11:42:39;;;;;;;33.67;5.97;;;;;;;;;;4986682;28;20064;-69
2022/01/19 11:45:08;;;;;;;27.27;4.65;;;;;;;;;;4986879;28;20520;-69
2022/01/19 11:47:34;;;;;;;21.27;4.22;;;;;;;;;;4993742;28;20499;-69
2022/01/19 11:49:59;;;;;;;26.10;4.72;;;;;;;;;;4989729;28;20121;-69
2022/01/19 11:52:47;;;;;;;31.08;5.13;;;;;;;;;;4988876;28;20125;-69
2022/01/19 11:55:17;;;;;;;24.38;5.25;;;;;;;;;;4986653;28;20130;-70
2022/01/19 11:57:46;;;;;;;29.77;5.88;;;;;;;;;;4989499;28;20486;-69
2022/01/19 12:00:21;;;;;;;25.25;5.00;;;;;;;;;;4990359;28;20050;-70
2022/01/19 12:02:50;;;;;;;32.97;5.40;;;;;;;;;;4994055;28;20089;-70
2022/01/19 12:05:24;;;;;;;19.98;5.30;;;;;;;;;;4989052;28;20073;-70
2022/01/19 12:07:53;;;;;;;27.13;5.38;;;;;;;;;;4989427;28;20852;-71
2022/01/19 12:10:24;;;;;;;27.92;5.00;;;;;;;;;;4989059;28;20026;-70
2022/01/19 12:13:10;;;;;;;30.02;5.97;;;;;;;;;;4989805;28;20502;-70
2022/01/19 12:15:46;;;;;;;24.48;5.88;;;;;;;;;;4989344;28;20034;-70
2022/01/19 12:18:31;;;;;;;25.55;5.93;;;;;;;;;;4991946;28;20104;-70
2022/01/19 12:20:57;;;;;;;31.25;6.45;;;;;;;;;;4989474;28;20030;-69
2022/01/19 12:23:23;;;;;;;29.85;6.60;;;;;;;;;;4988900;28;20050;-70
2022/01/19 12:25:52;;;;;;;30.80;5.55;;;;;;;;;;4989474;28;20117;-70
2022/01/19 12:28:38;;;;;;;25.85;5.30;;;;;;;;;;4977033;28;20065;-69
2022/01/19 12:31:22;;;;;;;28.42;6.22;;;;;;;;;;4993965;28;20030;-69
2022/01/19 12:34:02;;;;;;;31.15;6.55;;;;;;;;;;4988429;28;20033;-71
2022/01/19 12:36:47;;;;;;;32.45;5.53;;;;;;;;;;4989730;28;20129;-70
2022/01/19 12:39:25;;;;;;;33.83;6.07;;;;;;;;;;4989056;28;20100;-69
2022/01/19 12:42:13;;;;;;;45.53;7.35;;;;;;;;;;4988538;28;20167;-70
2022/01/19 12:44:40;;;;;;;30.25;6.32;;;;;;;;;;4989447;28;21878;-71
2022/01/19 12:47:29;;;;;;;38.42;6.63;;;;;;;;;;4988481;28;20019;-70
2022/01/19 12:50:04;;;;;;;29.63;6.68;;;;;;;;;;4988899;28;20565;-70
2022/01/19 12:52:32;;;;;;;30.48;6.22;;;;;;;;;;4988204;28;20110;-70
2022/01/19 12:55:08;;;;;;;41.90;7.22;;;;;;;;;;5003623;28;20029;-71
2022/01/19 12:57:34;;;;;;;39.42;7.43;;;;;;;;;;4987863;28;20034;-72
2022/01/19 12:59:59;;;;;;;34.53;6.88;;;;;;;;;;5003046;28;20056;-69
2022/01/19 13:02:28;;;;;;;28.40;5.97;;;;;;;;;;5003457;28;20570;-70
2022/01/19 13:05:02;;;;;;;36.88;7.20;;;;;;;;;;4987662;28;20022;-70
2022/01/19 13:07:30;;;;;;;38.55;7.32;;;;;;;;;;4989525;28;20710;-70
2022/01/19 13:12:56;;;;;;;28.23;7.38;;;;;;;;;;4988437;28;20022;-70
2022/01/19 13:15:22;;;;;;;31.20;7.72;;;;;;;;;;4988304;28;20068;-70
2022/01/19 13:17:49;;;;;;;34.05;7.65;;;;;;;;;;4991520;28;20064;-70
2022/01/19 13:20:19;;;;;;;33.35;7.30;;;;;;;;;;4987868;28;20033;-70
2022/01/19 13:22:46;;;;;;;37.95;8.10;;;;;;;;;;4988522;28;20050;-69
2022/01/19 13:25:15;;;;;;;42.75;8.75;;;;;;;;;;4988235;28;20026;-70
2022/01/19 13:27:42;;;;;;;44.33;10.05;;;;;;;;;;4988220;28;20060;-69
2022/01/19 13:30:10;;;;;;;41.88;9.30;;;;;;;;;;4975734;28;20030;-70
2022/01/19 13:32:38;;;;;;;46.17;9.45;;;;;;;;;;4989139;28;20116;-70
2022/01/19 13:35:04;;;;;;;40.17;9.43;;;;;;;;;;5002103;28;20037;-70
2022/01/19 13:37:31;;;;;;;44.47;10.55;;;;;;;;;;4988106;28;20041;-70
2022/01/19 13:39:59;;;;;;;49.75;10.18;;;;;;;;;;4987637;28;20030;-70
2022/01/19 13:42:40;;;;;;;47.22;9.93;;;;;;;;;;4988031;28;20033;-70
2022/01/19 13:45:11;;;;;;;41.43;9.73;;;;;;;;;;4991865;28;20026;-70
2022/01/19 13:50:49;;;;;;;46.00;11.18;;;;;;;;;;4952248;28;20027;-68
2022/01/19 13:53:15;;;;;;;39.88;9.85;;;;;;;;;;4935476;28;20152;-68
2022/01/19 13:55:41;;;;;;;50.25;11.80;;;;;;;;;;4970060;28;20289;-69
2022/01/19 13:58:09;;;;;;;42.50;11.18;;;;;;;;;;4987614;28;20487;-69
2022/01/19 14:00:35;;;;;;;45.05;11.32;;;;;;;;;;4987871;28;20109;-70
2022/01/19 14:03:04;;;;;;;47.25;11.43;;;;;;;;;;4990608;28;20091;-70
2022/01/19 14:05:40;;;;;;;49.30;11.95;;;;;;;;;;4991558;28;20026;-70
2022/01/19 14:08:05;;;;;;;56.60;12.35;;;;;;;;;;4986711;28;20137;-70
2022/01/19 14:10:44;;;;;;;60.83;14.15;;;;;;;;;;4987491;28;20099;-69
2022/01/19 14:13:21;;;;;;;62.17;13.68;;;;;;;;;;4987670;28;20108;-69
2022/01/19 14:15:47;;;;;;;58.55;12.88;;;;;;;;;;4987152;28;20116;-69
2022/01/19 14:18:14;;;;;;;54.20;13.85;;;;;;;;;;4986550;28;20447;-69
2022/01/19 14:20:40;;;;;;;48.75;12.65;;;;;;;;;;4987404;28;20152;-69
2022/01/19 14:23:13;;;;;;;50.88;13.18;;;;;;;;;;4986910;28;20579;-71
2022/01/19 14:25:39;;;;;;;57.72;14.45;;;;;;;;;;4975066;28;20034;-70
2022/01/19 14:28:16;;;;;;;49.42;15.00;;;;;;;;;;4987317;28;20026;-70
2022/01/19 14:30:47;;;;;;;59.97;14.95;;;;;;;;;;4987354;28;20058;-70
2022/01/19 14:33:15;;;;;;;58.00;16.58;;;;;;;;;;4990723;28;20042;-70
2022/01/19 14:35:42;;;;;;;60.20;17.10;;;;;;;;;;4990975;28;20288;-69
2022/01/19 14:38:18;;;;;;;61.13;16.70;;;;;;;;;;4987299;28;20034;-70
2022/01/19 14:40:46;;;;;;;59.75;17.65;;;;;;;;;;4987011;28;20113;-69
2022/01/19 14:43:16;;;;;;;65.57;19.27;;;;;;;;;;4987257;28;20068;-69
2022/01/19 14:45:52;;;;;;;67.45;17.80;;;;;;;;;;4986734;28;20026;-70
2022/01/19 14:48:18;;;;;;;60.55;18.45;;;;;;;;;;4986868;28;20038;-69
2022/01/19 14:50:44;;;;;;;47.72;15.73;;;;;;;;;;4986627;28;20065;-69
2022/01/19 14:53:12;;;;;;;49.58;15.55;;;;;;;;;;4986878;28;20543;-70
2022/01/19 14:55:39;;;;;;;67.13;17.70;;;;;;;;;;4987551;28;20082;-70
2022/01/19 14:58:05;;;;;;;53.00;15.70;;;;;;;;;;4986317;28;20444;-69
2022/01/19 15:00:34;;;;;;;56.63;16.10;;;;;;;;;;4987067;28;20027;-70
2022/01/19 15:03:02;;;;;;;55.35;14.07;;;;;;;;;;4986785;28;20034;-70
2022/01/19 15:05:29;;;;;;;48.53;13.82;;;;;;;;;;4990218;28;20110;-69
2022/01/19 15:07:55;;;;;;;53.17;13.43;;;;;;;;;;4987041;28;20518;-69
2022/01/19 15:10:23;;;;;;;54.10;12.85;;;;;;;;;;4969877;28;20030;-67
2022/01/19 15:12:52;;;;;;;50.72;12.90;;;;;;;;;;4974407;28;20065;-68
2022/01/19 15:15:18;;;;;;;45.40;11.02;;;;;;;;;;4974770;28;20052;-67
2022/01/19 15:17:46;;;;;;;50.85;12.45;;;;;;;;;;4986691;28;20022;-68
2022/01/19 15:20:11;;;;;;;47.50;12.45;;;;;;;;;;4986111;28;20540;-68
2022/01/19 15:22:37;;;;;;;56.20;11.18;;;;;;;;;;4990064;28;20034;-68
2022/01/19 15:25:03;;;;;;;47.53;10.98;;;;;;;;;;4993857;28;20421;-67
2022/01/19 15:27:28;;;;;;;53.33;10.63;;;;;;;;;;4990971;28;20026;-67
2022/01/19 15:29:59;;;;;;;47.50;9.75;;;;;;;;;;5004709;28;20088;-68
2022/01/19 15:32:24;;;;;;;42.65;8.90;;;;;;;;;;4990697;28;20086;-67
2022/01/19 15:34:53;;;;;;;46.70;8.93;;;;;;;;;;4989295;28;20119;-69
2022/01/19 15:37:18;;;;;;;39.30;8.82;;;;;;;;;;5004712;28;20045;-68
2022/01/19 15:39:46;;;;;;;43.97;8.32;;;;;;;;;;4993818;28;20026;-68
2022/01/19 15:42:15;;;;;;;52.25;9.15;;;;;;;;;;5005486;28;20030;-68
2022/01/19 15:44:43;;;;;;;49.25;8.63;;;;;;;;;;4989127;28;20051;-67
2022/01/19 15:47:12;;;;;;;45.67;8.68;;;;;;;;;;4989487;28;20119;-69
2022/01/19 15:49:37;;;;;;;44.22;7.95;;;;;;;;;;4993324;28;20789;-69
2022/01/19 15:52:03;;;;;;;38.60;7.35;;;;;;;;;;4989594;28;20397;-69
2022/01/19 15:54:29;;;;;;;47.92;7.88;;;;;;;;;;4990134;28;20406;-68
2022/01/19 15:56:56;;;;;;;35.40;5.90;;;;;;;;;;4989944;28;20037;-69
2022/01/19 15:59:24;;;;;;;38.08;5.60;;;;;;;;;;4990399;28;20532;-67
2022/01/19 16:01:52;;;;;;;44.88;6.90;;;;;;;;;;4989161;28;20494;-69